createdAt,value
2024-01-16T00:01:03.888Z,100797.56
2024-01-16T00:03:31.782Z,100795.63
2024-01-16T00:06:00.997Z,100793.72
2024-01-16T00:08:28.820Z,100797.19
2024-01-16T00:10:56.665Z,100797.56
2024-01-16T00:13:24.514Z,100800.22
2024-01-16T00:15:52.497Z,100800.22
2024-01-16T00:18:21.106Z,100800.59
2024-01-16T00:20:49.105Z,100807.50
2024-01-16T00:23:18.383Z,100817.84
2024-01-16T00:25:46.185Z,100814.03
2024-01-16T00:28:14.049Z,100829.31
2024-01-16T00:30:41.902Z,100837.75
2024-01-16T00:33:09.840Z,100833.19
2024-01-16T00:35:37.744Z,100820.13
2024-01-16T00:38:06.008Z,100804.84
2024-01-16T00:40:35.383Z,100799.84
2024-01-16T00:43:03.369Z,100796.00
2024-01-16T00:45:31.459Z,100801.78
2024-01-16T00:47:59.506Z,100805.97
2024-01-16T00:50:27.907Z,100806.38
2024-01-16T00:52:56.107Z,100807.13
2024-01-16T00:55:23.977Z,100805.56
2024-01-16T00:57:54.996Z,100820.16
2024-01-16T01:00:22.921Z,100822.47
2024-01-16T01:02:50.844Z,100820.53
2024-01-16T01:05:18.751Z,100822.44
2024-01-16T01:07:46.857Z,100823.59
2024-01-16T01:10:15.063Z,100825.50
2024-01-16T01:12:42.993Z,100832.41
2024-01-16T01:15:13.146Z,100830.84
2024-01-16T01:17:41.266Z,100821.28
2024-01-16T01:20:13.300Z,100826.63
2024-01-16T01:22:41.516Z,100827.41
2024-01-16T01:25:11.730Z,100826.22
2024-01-16T01:27:39.613Z,100822.41
2024-01-16T01:30:09.678Z,100820.88
2024-01-16T01:32:39.300Z,100824.72
2024-01-16T01:35:08.140Z,100822.41
2024-01-16T01:37:36.058Z,100818.56
2024-01-16T01:40:04.031Z,100818.19
2024-01-16T01:42:31.891Z,100825.06
2024-01-16T01:44:59.916Z,100820.13
2024-01-16T01:47:28.130Z,100825.06
2024-01-16T01:49:57.383Z,100827.38
2024-01-16T01:52:25.801Z,100831.59
2024-01-16T01:54:54.310Z,100829.69
2024-01-16T01:57:22.238Z,100859.19
2024-01-16T01:59:50.312Z,100887.53
2024-01-16T02:02:21.090Z,100876.81
2024-01-16T02:04:49.446Z,100873.00
2024-01-16T02:07:19.089Z,100871.88
2024-01-16T02:09:47.046Z,100869.59
2024-01-16T02:12:15.023Z,100867.66
2024-01-16T02:14:43.073Z,100868.06
2024-01-16T02:17:11.608Z,100862.72
2024-01-16T02:19:39.500Z,100858.88
2024-01-16T02:22:11.631Z,100853.50
2024-01-16T02:24:40.861Z,100847.38
2024-01-16T02:27:09.271Z,100848.16
2024-01-16T02:29:42.967Z,100832.81
2024-01-16T02:32:13.971Z,100833.94
2024-01-16T02:34:42.325Z,100841.25
2024-01-16T02:37:10.349Z,100840.09
2024-01-16T02:39:38.235Z,100833.19
2024-01-16T02:42:07.895Z,100839.31
2024-01-16T02:44:35.843Z,100844.31
2024-01-16T02:47:03.819Z,100843.94
2024-01-16T02:49:33.950Z,100845.47
2024-01-16T02:52:01.868Z,100849.69
2024-01-16T02:54:29.903Z,100841.66
2024-01-16T02:56:57.726Z,100839.69
2024-01-16T02:59:29.345Z,100837.81
2024-01-16T03:01:58.007Z,100832.44
2024-01-16T03:04:26.199Z,100833.94
2024-01-16T03:06:54.116Z,100835.50
2024-01-16T03:09:21.925Z,100832.03
2024-01-16T03:11:49.891Z,100832.81
2024-01-16T03:14:17.821Z,100842.78
2024-01-16T03:16:47.097Z,100847.78
2024-01-16T03:19:18.048Z,100847.41
2024-01-16T03:21:45.888Z,100858.50
2024-01-16T03:24:13.735Z,100863.09
2024-01-16T03:26:41.886Z,100866.94
2024-01-16T03:29:09.798Z,100871.56
2024-01-16T03:31:37.660Z,100859.66
2024-01-16T03:34:06.897Z,100861.19
2024-01-16T03:36:34.745Z,100855.81
2024-01-16T03:39:02.569Z,100856.19
2024-01-16T03:41:30.665Z,100860.41
2024-01-16T03:43:58.539Z,100861.94
2024-01-16T03:46:26.414Z,100858.13
2024-01-16T03:48:54.443Z,100857.72
2024-01-16T03:51:23.677Z,100862.72
2024-01-16T03:53:51.589Z,100856.19
2024-01-16T03:56:19.461Z,100853.91
2024-01-16T03:58:47.322Z,100851.22
2024-01-16T04:01:15.205Z,100851.59
2024-01-16T04:03:43.238Z,100851.59
2024-01-16T04:06:18.413Z,100850.84
2024-01-16T04:08:48.101Z,100848.94
2024-01-16T04:11:16.673Z,100842.41
2024-01-16T04:13:44.606Z,100843.56
2024-01-16T04:16:14.534Z,100829.00
2024-01-16T04:18:44.140Z,100826.31
2024-01-16T04:21:12.388Z,100822.47
2024-01-16T04:23:40.384Z,100818.25
2024-01-16T04:26:09.946Z,100819.03
2024-01-16T04:28:38.928Z,100820.56
2024-01-16T04:31:07.226Z,100821.69
2024-01-16T04:33:35.215Z,100821.72
2024-01-16T04:36:03.267Z,100823.22
2024-01-16T04:38:31.119Z,100818.66
2024-01-16T04:40:58.940Z,100824.00
2024-01-16T04:43:28.125Z,100818.66
2024-01-16T04:45:56.094Z,100828.59
2024-01-16T04:48:24.049Z,100820.94
2024-01-16T04:50:51.917Z,100821.72
2024-01-16T04:53:20.127Z,100827.44
2024-01-16T04:55:48.035Z,100833.19
2024-01-16T04:58:15.836Z,100826.69
2024-01-16T05:00:45.208Z,100825.53
2024-01-16T05:03:13.088Z,100815.19
2024-01-16T05:05:41.164Z,100813.28
2024-01-16T05:08:09.213Z,100815.56
2024-01-16T05:10:37.078Z,100809.06
2024-01-16T05:13:05.330Z,100803.31
2024-01-16T05:15:33.135Z,100804.06
2024-01-16T05:18:02.495Z,100794.47
2024-01-16T05:20:30.421Z,100795.63
2024-01-16T05:22:58.542Z,100785.69
2024-01-16T05:25:26.390Z,100787.22
2024-01-16T05:27:53.243Z,100789.13
2024-01-16T05:30:21.170Z,100777.59
2024-01-16T05:32:49.222Z,100782.22
2024-01-16T05:35:18.745Z,100773.41
2024-01-16T05:37:46.737Z,100776.47
2024-01-16T05:40:14.613Z,100771.88
2024-01-16T05:42:42.471Z,100773.41
2024-01-16T05:45:11.198Z,100768.81
2024-01-16T05:47:39.137Z,100768.44
2024-01-16T05:50:08.721Z,100760.38
2024-01-16T05:52:39.335Z,100756.94
2024-01-16T05:55:09.517Z,100759.97
2024-01-16T05:57:38.388Z,100758.84
2024-01-16T06:00:07.402Z,100755.78
2024-01-16T06:02:35.306Z,100764.59
2024-01-16T06:05:03.853Z,100766.88
2024-01-16T06:07:31.880Z,100755.03
2024-01-16T06:10:01.101Z,100753.47
2024-01-16T06:12:28.941Z,100758.84
2024-01-16T06:14:56.914Z,100765.38
2024-01-16T06:17:24.831Z,100766.53
2024-01-16T06:19:52.855Z,100761.53
2024-01-16T06:22:20.769Z,100766.50
2024-01-16T06:24:48.663Z,100762.28
2024-01-16T06:27:20.317Z,100774.94
2024-01-16T06:29:48.486Z,100776.88
2024-01-16T06:32:16.609Z,100770.34
2024-01-16T06:34:45.185Z,100778.41
2024-01-16T06:37:13.057Z,100782.22
2024-01-16T06:39:40.942Z,100787.59
2024-01-16T06:42:11.238Z,100779.13
2024-01-16T06:44:41.096Z,100782.63
2024-01-16T06:47:08.977Z,100779.53
2024-01-16T06:49:37.034Z,100779.91
2024-01-16T06:52:05.397Z,100782.22
2024-01-16T06:54:33.374Z,100775.31
2024-01-16T06:57:01.230Z,100777.22
2024-01-16T06:59:29.103Z,100779.53
2024-01-16T07:01:58.298Z,100779.53
2024-01-16T07:04:26.187Z,100777.25
2024-01-16T07:06:54.090Z,100779.53
2024-01-16T07:09:22.068Z,100784.50
2024-01-16T07:11:50.200Z,100779.53
2024-01-16T07:14:18.116Z,100788.75
2024-01-16T07:16:45.999Z,100779.16
2024-01-16T07:19:15.424Z,100781.81
2024-01-16T07:21:43.357Z,100787.56
2024-01-16T07:24:11.227Z,100784.53
2024-01-16T07:26:39.171Z,100784.91
2024-01-16T07:29:07.077Z,100781.84
2024-01-16T07:31:34.916Z,100784.16
2024-01-16T07:34:03.057Z,100794.88
2024-01-16T07:36:32.600Z,100790.66
2024-01-16T07:39:01.641Z,100789.88
2024-01-16T07:41:29.602Z,100786.44
2024-01-16T07:43:57.459Z,100797.16
2024-01-16T07:46:25.433Z,100797.16
2024-01-16T07:48:53.411Z,100799.09
2024-01-16T07:51:21.310Z,100804.06
2024-01-16T07:53:52.946Z,100797.94
2024-01-16T07:56:20.882Z,100802.91
2024-01-16T07:58:48.734Z,100797.56
2024-01-16T08:01:17.416Z,100803.69
2024-01-16T08:03:45.275Z,100798.69
2024-01-16T08:06:13.256Z,100804.06
2024-01-16T08:08:41.299Z,100804.47
2024-01-16T08:11:10.588Z,100803.31
2024-01-16T08:13:38.579Z,100803.31
2024-01-16T08:16:09.374Z,100799.84
2024-01-16T08:18:38.146Z,100802.53
2024-01-16T08:21:06.974Z,100800.63
2024-01-16T08:23:34.867Z,100802.53
2024-01-16T08:26:02.798Z,100799.47
2024-01-16T08:28:32.132Z,100805.59
2024-01-16T08:31:00.618Z,100801.78
2024-01-16T08:33:37.008Z,100797.19
2024-01-16T08:36:10.967Z,100799.84
2024-01-16T08:38:38.966Z,100795.66
2024-01-16T08:41:07.801Z,100799.47
2024-01-16T08:43:36.972Z,100808.66
2024-01-16T08:46:05.300Z,100797.16
2024-01-16T08:48:35.700Z,100795.66
2024-01-16T08:51:05.819Z,100794.88
2024-01-16T08:53:35.552Z,100800.25
2024-01-16T08:56:03.640Z,100804.06
2024-01-16T08:58:31.536Z,100798.69
2024-01-16T09:01:00.810Z,100801.38
2024-01-16T09:03:28.685Z,100795.63
2024-01-16T09:05:56.748Z,100800.22
2024-01-16T09:08:24.742Z,100795.25
2024-01-16T09:10:52.634Z,100795.25
2024-01-16T09:13:21.373Z,100800.59
2024-01-16T09:15:50.472Z,100799.47
2024-01-16T09:18:19.846Z,100802.13
2024-01-16T09:20:48.659Z,100799.84
2024-01-16T09:23:16.615Z,100796.78
2024-01-16T09:25:47.016Z,100800.63
2024-01-16T09:28:16.858Z,100791.03
2024-01-16T09:30:44.993Z,100799.84
2024-01-16T09:33:13.413Z,100801.00
2024-01-16T09:35:43.141Z,100797.16
2024-01-16T09:38:11.052Z,100800.19
2024-01-16T09:40:38.920Z,100804.03
2024-01-16T09:43:09.609Z,100795.59
2024-01-16T09:45:40.328Z,100800.19
2024-01-16T09:48:10.466Z,100800.56
2024-01-16T09:50:38.963Z,100789.81
2024-01-16T09:53:08.444Z,100785.56
2024-01-16T09:55:36.335Z,100789.34
2024-01-16T09:58:05.206Z,100788.56
2024-01-16T10:00:33.385Z,100784.31
2024-01-16T10:03:02.726Z,100787.00
2024-01-16T10:05:32.724Z,100782.03
2024-01-16T10:08:01.012Z,100772.44
2024-01-16T10:10:38.672Z,100783.50
2024-01-16T10:13:16.259Z,100786.91
2024-01-16T10:15:44.635Z,100767.28
2024-01-16T10:18:24.322Z,100767.22
2024-01-16T10:20:53.901Z,100771.06
2024-01-16T10:23:26.091Z,100763.38
2024-01-16T10:26:12.180Z,100772.56
2024-01-16T10:28:42.385Z,100772.50
2024-01-16T10:31:13.242Z,100760.44
2024-01-16T10:33:41.685Z,100766.06
2024-01-16T10:36:12.189Z,100762.44
2024-01-16T10:38:40.863Z,100763.34
2024-01-16T10:41:14.698Z,100767.00
2024-01-16T10:43:43.505Z,100752.34
2024-01-16T10:46:13.325Z,100749.84
2024-01-16T10:48:43.909Z,100765.53
2024-01-16T10:51:13.364Z,100762.84
2024-01-16T10:53:44.772Z,100768.09
2024-01-16T10:56:14.083Z,100762.50
2024-01-16T10:58:42.876Z,100763.25
2024-01-16T11:01:14.102Z,100752.94
2024-01-16T11:03:48.736Z,100752.00
2024-01-16T11:06:18.110Z,100752.41
2024-01-16T11:08:48.586Z,100755.19
2024-01-16T11:11:19.027Z,100753.31
2024-01-16T11:13:48.596Z,100745.28
2024-01-16T11:16:16.614Z,100743.56
2024-01-16T11:18:44.838Z,100731.75
2024-01-16T11:21:17.644Z,100728.22
2024-01-16T11:23:48.438Z,100729.44
2024-01-16T11:26:33.954Z,100728.22
2024-01-16T11:29:03.537Z,100727.44
2024-01-16T11:31:33.024Z,100720.09
2024-01-16T11:34:02.096Z,100711.94
2024-01-16T11:36:55.789Z,100715.63
2024-01-16T11:39:26.100Z,100706.63
2024-01-16T11:42:00.061Z,100708.63
2024-01-16T11:44:39.649Z,100699.25
2024-01-16T11:47:08.657Z,100708.00
2024-01-16T11:49:36.860Z,100709.72
2024-01-16T11:52:05.189Z,100713.88
2024-01-16T11:54:33.044Z,100704.19
2024-01-16T11:57:55.350Z,100701.50
2024-01-16T12:00:23.479Z,100703.47
2024-01-16T12:02:54.040Z,100701.56
2024-01-16T12:05:22.730Z,100702.22
2024-01-16T12:07:52.096Z,100697.66
2024-01-16T12:10:21.303Z,100701.56
2024-01-16T12:12:52.171Z,100704.81
2024-01-16T12:15:21.293Z,100686.03
2024-01-16T12:18:00.116Z,100695.22
2024-01-16T12:20:30.130Z,100684.13
2024-01-16T12:23:00.176Z,100678.59
2024-01-16T12:25:59.733Z,100676.44
2024-01-16T12:28:31.220Z,100677.38
2024-01-16T12:31:01.966Z,100685.97
2024-01-16T12:33:31.584Z,100675.38
2024-01-16T12:36:05.221Z,100678.47
2024-01-16T12:38:34.046Z,100677.28
2024-01-16T12:41:04.180Z,100677.41
2024-01-16T12:43:34.367Z,100674.47
2024-01-16T12:46:02.828Z,100666.38
2024-01-16T12:48:31.428Z,100671.13
2024-01-16T12:51:03.959Z,100660.13
2024-01-16T12:53:34.920Z,100659.94
2024-01-16T12:56:04.542Z,100665.81
2024-01-16T12:58:36.638Z,100671.97
2024-01-16T13:01:35.153Z,100655.81
2024-01-16T13:04:07.945Z,100662.91
2024-01-16T13:06:36.889Z,100666.03
2024-01-16T13:09:12.392Z,100661.88
2024-01-16T13:11:51.049Z,100654.44
2024-01-16T13:14:22.050Z,100650.06
2024-01-16T13:16:50.462Z,100651.66
2024-01-16T13:19:19.758Z,100645.50
2024-01-16T13:21:48.248Z,100641.47
2024-01-16T13:24:16.157Z,100636.03
2024-01-16T13:26:44.555Z,100647.28
2024-01-16T13:29:12.665Z,100638.66
2024-01-16T13:31:41.969Z,100643.84
2024-01-16T13:34:10.073Z,100642.34
2024-01-16T13:39:14.213Z,100633.75
2024-01-16T13:41:42.661Z,100633.97
2024-01-16T13:44:10.508Z,100633.41
2024-01-16T13:49:11.154Z,100619.88
2024-01-16T13:51:39.101Z,100615.88
2024-01-16T13:54:07.086Z,100623.34
2024-01-16T13:56:51.303Z,100616.81
2024-01-16T13:59:22.750Z,100607.38
2024-01-16T14:01:50.660Z,100616.25
2024-01-16T14:04:19.909Z,100610.50
2024-01-16T14:07:02.880Z,100611.59
2024-01-16T14:09:36.822Z,100603.75
2024-01-16T14:12:05.290Z,100617.50
2024-01-16T14:14:33.172Z,100615.28
2024-01-16T14:17:02.180Z,100607.66
2024-01-16T14:19:32.376Z,100603.06
2024-01-16T14:22:00.400Z,100607.19
2024-01-16T14:24:28.332Z,100607.63
2024-01-16T14:26:57.766Z,100599.69
2024-01-16T14:29:26.002Z,100596.56
2024-01-16T14:31:53.877Z,100592.97
2024-01-16T14:34:21.838Z,100594.84
2024-01-16T14:36:52.642Z,100590.16
2024-01-16T14:39:25.953Z,100590.31
2024-01-16T14:41:54.505Z,100583.22
2024-01-16T14:44:22.566Z,100585.50
2024-01-16T14:46:53.155Z,100579.78
2024-01-16T14:49:22.141Z,100578.91
2024-01-16T14:51:52.446Z,100581.25
2024-01-16T14:54:20.594Z,100575.50
2024-01-16T14:56:49.091Z,100579.44
2024-01-16T14:59:17.130Z,100571.75
2024-01-16T15:01:46.164Z,100573.19
2024-01-16T15:04:14.383Z,100572.38
2024-01-16T15:06:42.576Z,100570.63
2024-01-16T15:09:13.875Z,100564.13
2024-01-16T15:11:43.145Z,100563.31
2024-01-16T15:14:13.718Z,100563.31
2024-01-16T15:16:41.693Z,100565.41
2024-01-16T15:19:09.693Z,100558.28
2024-01-16T15:21:40.417Z,100570.72
2024-01-16T15:24:08.519Z,100570.91
2024-01-16T15:26:37.861Z,100566.81
2024-01-16T15:29:07.499Z,100564.69
2024-01-16T15:31:35.391Z,100560.19
2024-01-16T15:34:03.341Z,100556.44
2024-01-16T15:36:31.233Z,100558.00
2024-01-16T15:38:59.196Z,100550.81
2024-01-16T15:41:27.106Z,100549.41
2024-01-16T15:43:58.008Z,100551.81
2024-01-16T15:46:26.446Z,100554.06
2024-01-16T15:48:57.386Z,100546.09
2024-01-16T15:51:25.610Z,100546.16
2024-01-16T15:53:53.538Z,100551.53
2024-01-16T15:56:21.415Z,100548.50
2024-01-16T15:58:49.296Z,100552.44
2024-01-16T16:01:18.505Z,100558.59
2024-01-16T16:03:46.388Z,100553.28
2024-01-16T16:06:14.440Z,100554.06
2024-01-16T16:08:42.761Z,100546.06
2024-01-16T16:11:10.619Z,100555.75
2024-01-16T16:13:38.552Z,100551.06
2024-01-16T16:16:06.938Z,100558.91
2024-01-16T16:18:38.658Z,100557.81
2024-01-16T16:21:06.740Z,100558.59
2024-01-16T16:23:34.566Z,100564.00
2024-01-16T16:26:02.463Z,100558.25
2024-01-16T16:28:30.277Z,100554.81
2024-01-16T16:30:58.172Z,100554.13
2024-01-16T16:33:26.173Z,100554.94
2024-01-16T16:35:55.530Z,100550.38
2024-01-16T16:38:23.606Z,100562.69
2024-01-16T16:40:51.484Z,100557.38
2024-01-16T16:43:19.356Z,100555.88
2024-01-16T16:45:47.286Z,100560.94
2024-01-16T16:48:15.542Z,100559.00
2024-01-16T16:50:44.173Z,100562.44
2024-01-16T16:53:13.407Z,100566.31
2024-01-16T16:55:41.290Z,100559.44
2024-01-16T16:58:10.341Z,100552.94
2024-01-16T17:00:40.537Z,100555.97
2024-01-16T17:03:08.922Z,100538.75
2024-01-16T17:05:37.138Z,100549.13
2024-01-16T17:08:05.698Z,100551.44
2024-01-16T17:10:34.890Z,100550.66
2024-01-16T17:13:03.658Z,100542.63
2024-01-16T17:15:31.732Z,100543.00
2024-01-16T17:17:59.647Z,100540.69
2024-01-16T17:20:27.731Z,100534.19
2024-01-16T17:22:55.559Z,100532.25
2024-01-16T17:25:23.548Z,100526.50
2024-01-16T17:27:52.802Z,100528.38
2024-01-16T17:30:20.762Z,100528.44
2024-01-16T17:32:48.714Z,100526.53
2024-01-16T17:35:17.785Z,100530.75
2024-01-16T17:37:45.926Z,100521.19
2024-01-16T17:40:18.997Z,100529.25
2024-01-16T17:42:48.577Z,100518.50
2024-01-16T17:45:18.095Z,100526.94
2024-01-16T17:47:46.106Z,100515.81
2024-01-16T17:50:14.099Z,100519.63
2024-01-16T17:52:42.020Z,100511.56
2024-01-16T17:55:10.821Z,100520.38
2024-01-16T17:57:38.713Z,100520.00
2024-01-16T18:00:10.040Z,100515.38
2024-01-16T18:02:40.392Z,100514.19
2024-01-16T18:05:11.412Z,100493.88
2024-01-16T18:07:39.633Z,100503.88
2024-01-16T18:10:10.111Z,100491.59
2024-01-16T18:12:39.064Z,100501.97
2024-01-16T18:15:09.786Z,100481.63
2024-01-16T18:17:39.160Z,100477.81
2024-01-16T18:20:11.194Z,100482.44
2024-01-16T18:22:39.380Z,100475.16
2024-01-16T18:25:09.794Z,100468.28
2024-01-16T18:27:38.450Z,100461.72
2024-01-16T18:30:07.876Z,100462.16
2024-01-16T18:32:36.014Z,100466.34
2024-01-16T18:35:06.640Z,100459.47
2024-01-16T18:37:34.533Z,100458.31
2024-01-16T18:40:02.777Z,100452.16
2024-01-16T18:42:30.678Z,100449.47
2024-01-16T18:44:58.823Z,100448.75
2024-01-16T18:47:27.469Z,100449.13
2024-01-16T18:49:55.432Z,100443.75
2024-01-16T18:52:25.129Z,100448.75
2024-01-16T18:54:53.042Z,100446.84
2024-01-16T18:57:23.799Z,100438.00
2024-01-16T18:59:51.686Z,100430.38
2024-01-16T19:02:22.370Z,100421.19
2024-01-16T19:04:50.699Z,100421.56
2024-01-16T19:07:18.781Z,100424.63
2024-01-16T19:09:48.038Z,100414.31
2024-01-16T19:12:15.894Z,100418.56
2024-01-16T19:14:46.208Z,100413.56
2024-01-16T19:17:16.678Z,100415.50
2024-01-16T19:19:44.537Z,100432.38
2024-01-16T19:22:12.375Z,100415.50
2024-01-16T19:24:40.197Z,100416.63
2024-01-16T19:27:09.504Z,100424.31
2024-01-16T19:29:37.437Z,100428.91
2024-01-16T19:32:06.586Z,100427.78
2024-01-16T19:34:34.546Z,100427.00
2024-01-16T19:37:02.707Z,100424.75
2024-01-16T19:39:33.815Z,100420.50
2024-01-16T19:42:01.871Z,100414.78
2024-01-16T19:44:31.275Z,100415.19
2024-01-16T19:46:59.210Z,100420.56
2024-01-16T19:49:27.801Z,100409.81
2024-01-16T19:51:54.699Z,100396.03
2024-01-16T19:54:22.630Z,100406.78
2024-01-16T19:56:50.545Z,100404.50
2024-01-16T19:59:18.548Z,100401.06
2024-01-16T20:01:47.796Z,100408.38
2024-01-16T20:04:15.844Z,100399.63
2024-01-16T20:09:17.277Z,100399.66
2024-01-16T20:11:46.263Z,100393.56
2024-01-16T20:14:14.208Z,100392.81
2024-01-16T20:16:42.143Z,100405.84
2024-01-16T20:19:11.557Z,100385.94
2024-01-16T20:21:39.741Z,100391.75
2024-01-16T20:24:08.226Z,100389.09
2024-01-16T20:26:37.565Z,100378.00
2024-01-16T20:29:06.239Z,100384.16
2024-01-16T20:31:34.800Z,100369.63
2024-01-16T20:34:03.033Z,100377.31
2024-01-16T20:36:32.323Z,100365.09
2024-01-16T20:39:00.267Z,100359.72
2024-01-16T20:41:28.216Z,100362.84
2024-01-16T20:43:56.149Z,100361.34
2024-01-16T20:46:24.293Z,100356.38
2024-01-16T20:48:52.376Z,100359.84
2024-01-16T20:51:20.271Z,100347.63
2024-01-16T20:53:49.594Z,100350.69
2024-01-16T20:56:19.287Z,100347.28
2024-01-16T20:58:48.659Z,100338.47
2024-01-16T21:01:16.531Z,100344.22
2024-01-16T21:03:47.750Z,100346.50
2024-01-16T21:06:15.927Z,100352.28
2024-01-16T21:08:43.930Z,100345.00
2024-01-16T21:11:13.213Z,100338.88
2024-01-16T21:13:41.326Z,100340.03
2024-01-16T21:16:12.833Z,100341.19
2024-01-16T21:18:42.816Z,100336.19
2024-01-16T21:21:10.886Z,100337.72
2024-01-16T21:23:53.223Z,100344.59
2024-01-16T21:26:23.151Z,100336.56
2024-01-16T21:28:51.053Z,100338.88
2024-01-16T21:31:18.872Z,100329.31
2024-01-16T21:33:46.802Z,100335.81
2024-01-16T21:36:15.044Z,100334.69
2024-01-16T21:38:42.927Z,100326.66
2024-01-16T21:41:13.399Z,100307.94
2024-01-16T21:43:43.724Z,100308.72
2024-01-16T21:46:11.894Z,100298.00
2024-01-16T21:48:39.964Z,100287.31
2024-01-16T21:51:09.109Z,100283.13
2024-01-16T21:53:37.821Z,100273.59
2024-01-16T21:56:06.911Z,100275.13
2024-01-16T21:58:34.764Z,100273.59
2024-01-16T22:01:04.468Z,100269.00
2024-01-16T22:03:32.334Z,100272.44
2024-01-16T22:06:00.409Z,100267.09
2024-01-16T22:08:30.914Z,100262.13
2024-01-16T22:10:58.852Z,100258.31
2024-01-16T22:13:26.697Z,100246.84
2024-01-16T22:15:54.555Z,100250.69
2024-01-16T22:18:23.845Z,100243.03
2024-01-16T22:20:51.787Z,100229.25
2024-01-16T22:23:19.677Z,100220.44
2024-01-16T22:25:47.628Z,100224.66
2024-01-16T22:28:15.590Z,100209.75
2024-01-16T22:30:43.481Z,100217.78
2024-01-16T22:33:12.341Z,100203.25
2024-01-16T22:35:41.707Z,100213.97
2024-01-16T22:38:09.610Z,100221.59
2024-01-16T22:40:37.716Z,100214.34
2024-01-16T22:43:06.443Z,100195.59
2024-01-16T22:45:34.428Z,100179.94
2024-01-16T22:48:06.303Z,100185.31
2024-01-16T22:50:34.316Z,100192.56
2024-01-16T22:53:03.733Z,100182.63
2024-01-16T22:55:31.590Z,100179.56
2024-01-16T22:57:59.425Z,100173.47
2024-01-16T23:00:30.187Z,100159.31
2024-01-16T23:02:58.534Z,100155.88
2024-01-16T23:05:28.634Z,100142.47
2024-01-16T23:07:57.994Z,100138.66
2024-01-16T23:10:27.747Z,100140.97
2024-01-16T23:12:55.679Z,100142.09
2024-01-16T23:15:23.588Z,100141.34
2024-01-16T23:17:51.512Z,100132.94
2024-01-16T23:20:20.965Z,100132.94
2024-01-16T23:22:48.952Z,100129.09
2024-01-16T23:25:17.262Z,100132.94
2024-01-16T23:27:50.282Z,100133.31
2024-01-16T23:30:19.030Z,100120.72
2024-01-16T23:32:47.180Z,100119.59
2024-01-16T23:35:15.128Z,100117.28
2024-01-16T23:37:45.067Z,100125.72
2024-01-16T23:40:16.133Z,100120.00
2024-01-16T23:42:46.192Z,100110.44
2024-01-16T23:45:23.725Z,100115.06
2024-01-16T23:47:56.463Z,100117.75
2024-01-16T23:50:24.581Z,100117.38
2024-01-16T23:52:52.441Z,100112.44
2024-01-16T23:55:20.320Z,100100.19
2024-01-16T23:57:49.553Z,100104.41
